Time;durP1;ratioP1;P1;durP2;ratioP2;P2;SDS_P1;SDS_P2;PMS_P1;PMS_P2;Temp;Humidity;BMP_temperature;BMP_pressure;BME280_temperature;BME280_humidity;BME280_pressure;Samples;Min_cycle;Max_cycle;Signal;HPM_P1;HPM_P2
2023/08/30 00:03:56;;;;;;;2.65;0.90;;;;;;;22.11;59.97;100383.00;10377782;28;97870;-79
2023/08/30 00:09:00;;;;;;;1.58;0.80;;;;;;;21.95;60.32;100379.88;10377480;28;96685;-79
2023/08/30 00:14:06;;;;;;;0.80;0.60;;;;;;;22.17;60.04;100387.84;10377674;28;96688;-79
2023/08/30 00:19:11;;;;;;;0.77;0.70;;;;;;;22.50;58.89;100394.81;10376427;28;97108;-79
2023/08/30 00:24:14;;;;;;;1.25;0.70;;;;;;;22.22;59.32;100395.47;10377895;28;97659;-79
2023/08/30 00:29:18;;;;;;;1.00;0.80;;;;;;;22.07;59.58;100381.53;10376256;28;97291;-79
2023/08/30 00:34:23;;;;;;;2.15;0.77;;;;;;;22.17;59.53;100368.22;10376062;28;96816;-79
2023/08/30 00:39:26;;;;;;;1.45;0.80;;;;;;;22.09;59.87;100374.22;10375777;28;97322;-79
2023/08/30 00:44:29;;;;;;;1.33;0.80;;;;;;;22.15;59.89;100378.22;10339775;28;97512;-79
2023/08/30 00:49:34;;;;;;;1.70;0.80;;;;;;;22.16;60.31;100361.16;10335656;28;97193;-79
2023/08/30 00:54:39;;;;;;;1.35;0.80;;;;;;;21.80;61.05;100367.75;10335052;28;96888;-79
2023/08/30 00:59:42;;;;;;;1.10;0.80;;;;;;;22.12;60.18;100354.34;10334820;28;96751;-79
2023/08/30 01:04:48;;;;;;;1.47;0.70;;;;;;;22.01;60.26;100352.59;10335016;28;97729;-79
2023/08/30 01:09:51;;;;;;;3.40;1.10;;;;;;;22.06;60.33;100347.69;10335323;28;96884;-79
2023/08/30 01:15:07;;;;;;;1.58;0.90;;;;;;;21.85;60.96;100344.13;10336672;28;97239;-79
2023/08/30 01:20:16;;;;;;;1.48;0.80;;;;;;;21.69;61.53;100351.75;10334094;28;96950;-79
2023/08/30 01:25:33;;;;;;;1.30;0.73;;;;;;;21.71;61.48;100351.63;10334840;28;96733;-79
2023/08/30 01:30:42;;;;;;;3.08;0.93;;;;;;;21.75;61.36;100343.19;10333180;28;96657;-79
2023/08/30 01:35:47;;;;;;;1.83;0.70;;;;;;;21.59;61.90;100342.78;10333579;28;96627;-79
2023/08/30 01:40:53;;;;;;;1.25;0.77;;;;;;;21.69;61.55;100333.00;10344837;28;96827;-79
2023/08/30 01:45:59;;;;;;;1.40;0.80;;;;;;;21.80;61.29;100335.63;10381760;28;99779;-79
2023/08/30 01:51:04;;;;;;;1.95;0.85;;;;;;;21.70;61.52;100333.84;10381768;28;96745;-79
2023/08/30 01:56:07;;;;;;;1.55;0.80;;;;;;;21.40;62.17;100335.44;10381987;28;96959;-79
2023/08/30 02:01:12;;;;;;;1.27;0.60;;;;;;;21.46;61.90;100334.06;10381135;28;97837;-79
2023/08/30 02:06:22;;;;;;;1.33;1.02;;;;;;;21.34;62.29;100327.06;10382370;28;96651;-79
2023/08/30 02:11:28;;;;;;;1.30;0.77;;;;;;;21.30;62.32;100336.31;10381747;28;97548;-79
2023/08/30 02:16:34;;;;;;;1.35;0.85;;;;;;;20.57;63.87;100336.03;10380050;28;97622;-79
2023/08/30 02:21:38;;;;;;;2.05;0.98;;;;;;;20.95;63.07;100339.16;10379682;28;97766;-79
2023/08/30 02:26:41;;;;;;;0.98;0.70;;;;;;;21.12;62.76;100327.94;10380605;28;96708;-79
2023/08/30 02:31:46;;;;;;;1.75;0.93;;;;;;;21.14;62.69;100327.78;10380343;28;97475;-79
2023/08/30 02:36:49;;;;;;;0.80;0.70;;;;;;;21.05;62.72;100320.53;10380601;28;97787;-79
2023/08/30 02:41:53;;;;;;;1.23;0.80;;;;;;;20.97;63.03;100322.97;10364750;28;96934;-79
2023/08/30 02:46:57;;;;;;;1.03;0.60;;;;;;;20.72;63.12;100318.78;10338407;28;96568;-79
2023/08/30 02:52:01;;;;;;;2.03;0.90;;;;;;;20.39;64.46;100324.13;10370836;28;96759;-79
2023/08/30 02:57:04;;;;;;;1.17;0.70;;;;;;;20.35;64.61;100323.50;10380835;28;96785;-79
2023/08/30 03:02:09;;;;;;;1.85;0.90;;;;;;;20.47;64.08;100337.72;10379554;28;96824;-79
2023/08/30 03:07:12;;;;;;;1.27;0.60;;;;;;;20.46;63.81;100337.84;10378734;28;96830;-79
2023/08/30 03:12:15;;;;;;;1.85;0.70;;;;;;;20.26;64.09;100342.03;10378482;28;96754;-79
2023/08/30 03:17:20;;;;;;;2.40;1.10;;;;;;;20.35;64.02;100323.50;10379105;28;96629;-79
2023/08/30 03:22:23;;;;;;;1.30;0.68;;;;;;;20.36;64.03;100335.03;10378382;28;96795;-79
2023/08/30 03:27:27;;;;;;;1.27;0.80;;;;;;;20.44;64.13;100331.78;10379069;28;96894;-79
2023/08/30 03:32:32;;;;;;;1.60;0.85;;;;;;;20.59;63.45;100333.22;10379050;28;97202;-79
2023/08/30 03:37:35;;;;;;;2.45;1.00;;;;;;;20.51;64.00;100331.19;10378702;28;96726;-79
2023/08/30 03:42:39;;;;;;;1.08;0.60;;;;;;;20.21;64.46;100330.88;10348591;28;96665;-79
2023/08/30 03:47:43;;;;;;;1.00;0.70;;;;;;;19.76;66.13;100339.75;10337124;28;96787;-79
2023/08/30 03:52:47;;;;;;;1.33;0.80;;;;;;;19.71;66.27;100332.09;10336766;28;96689;-79
2023/08/30 03:57:50;;;;;;;1.42;0.93;;;;;;;19.89;65.57;100321.84;10337071;28;96700;-79
2023/08/30 04:02:55;;;;;;;4.15;0.88;;;;;;;19.79;65.44;100324.34;10334671;28;96769;-79
2023/08/30 04:07:58;;;;;;;1.33;0.70;;;;;;;19.35;67.00;100321.47;10336295;28;96613;-79
2023/08/30 04:13:01;;;;;;;0.88;0.68;;;;;;;19.42;67.05;100322.75;10337327;28;96906;-79
2023/08/30 04:18:07;;;;;;;1.08;0.77;;;;;;;19.47;66.46;100333.09;10331265;22;97898;-79
2023/08/30 04:23:11;;;;;;;0.55;0.50;;;;;;;19.82;65.48;100328.59;10377484;28;97389;-79
2023/08/30 04:28:17;;;;;;;0.95;0.80;;;;;;;19.90;64.94;100332.38;10377014;28;96738;-79
2023/08/30 04:33:22;;;;;;;1.17;0.70;;;;;;;19.58;65.80;100333.97;10404111;28;96668;-79
2023/08/30 04:38:25;;;;;;;1.15;0.90;;;;;;;19.68;65.71;100329.66;10419259;28;96733;-79
2023/08/30 04:43:28;;;;;;;1.75;0.90;;;;;;;19.61;65.71;100327.56;10380990;28;96635;-79
2023/08/30 04:48:33;;;;;;;1.67;0.63;;;;;;;19.06;67.36;100326.28;10376689;28;96626;-79
2023/08/30 04:53:36;;;;;;;1.63;0.80;;;;;;;19.03;67.90;100323.00;10375320;28;96727;-79
2023/08/30 04:58:40;;;;;;;1.20;0.70;;;;;;;19.44;66.35;100331.47;10376402;28;96896;-79
2023/08/30 05:03:44;;;;;;;2.13;0.90;;;;;;;19.72;65.22;100332.94;10376248;28;96939;-79
2023/08/30 05:08:48;;;;;;;0.80;0.60;;;;;;;19.90;64.65;100337.72;10376403;28;96739;-79
2023/08/30 05:13:51;;;;;;;1.00;0.70;;;;;;;19.84;65.02;100345.38;10377871;28;97148;-79
2023/08/30 05:18:56;;;;;;;1.08;0.70;;;;;;;19.87;64.78;100342.47;10382734;28;97928;-79
2023/08/30 05:23:59;;;;;;;2.17;0.80;;;;;;;19.93;64.70;100345.50;10407916;28;96853;-79
2023/08/30 05:29:03;;;;;;;1.38;0.75;;;;;;;19.79;65.22;100358.19;10425332;28;96616;-79
2023/08/30 05:34:07;;;;;;;1.75;0.88;;;;;;;19.88;65.02;100358.38;10424274;28;96806;-79
2023/08/30 05:39:12;;;;;;;1.10;0.80;;;;;;;19.86;64.85;100352.28;10423451;28;97659;-79
2023/08/30 05:44:15;;;;;;;1.08;0.65;;;;;;;19.97;64.58;100357.66;10401082;28;96717;-79
2023/08/30 05:49:20;;;;;;;1.75;1.00;;;;;;;19.55;65.89;100360.03;10382290;28;96842;-79
2023/08/30 05:54:23;;;;;;;1.20;0.80;;;;;;;19.69;65.12;100366.06;10381334;28;96678;-79
2023/08/30 05:59:27;;;;;;;0.82;0.70;;;;;;;19.70;65.00;100367.75;10382379;28;97247;-79
2023/08/30 06:04:32;;;;;;;0.60;0.60;;;;;;;19.53;65.37;100368.16;10381848;28;97778;-79
2023/08/30 06:09:35;;;;;;;1.00;0.77;;;;;;;19.60;64.97;100368.56;10381576;28;96693;-79
2023/08/30 06:14:39;;;;;;;0.93;0.77;;;;;;;19.61;64.96;100373.81;10382259;28;96651;-79
2023/08/30 06:19:43;;;;;;;1.63;0.70;;;;;;;19.52;65.23;100386.97;10381319;28;97159;-79
2023/08/30 06:24:47;;;;;;;0.63;0.52;;;;;;;19.54;65.01;100391.25;10380024;28;96728;-79
2023/08/30 06:29:50;;;;;;;0.70;0.60;;;;;;;19.71;64.87;100380.16;10387312;28;96981;-79
2023/08/30 06:34:55;;;;;;;1.08;0.77;;;;;;;20.42;63.53;100381.81;10421068;28;97280;-79
2023/08/30 06:39:58;;;;;;;0.68;0.57;;;;;;;20.70;63.31;100379.56;10422505;28;96752;-79
2023/08/30 06:45:02;;;;;;;2.13;0.82;;;;;;;21.13;63.00;100372.47;10410027;28;96934;-80
2023/08/30 06:50:09;;;;;;;1.17;0.73;;;;;;;21.35;62.41;100375.13;10380869;28;97437;-79
2023/08/30 06:55:13;;;;;;;2.53;0.80;;;;;;;21.62;61.79;100389.88;10380496;28;96931;-80
2023/08/30 07:00:17;;;;;;;1.13;0.73;;;;;;;21.84;61.29;100384.44;10379921;28;97229;-80
2023/08/30 07:05:23;;;;;;;1.60;0.80;;;;;;;22.03;60.79;100389.97;10380325;28;96623;-79
2023/08/30 07:10:27;;;;;;;1.67;0.88;;;;;;;22.18;60.28;100386.00;10380314;28;96698;-79
2023/08/30 07:15:30;;;;;;;1.50;0.80;;;;;;;22.67;58.76;100385.28;10380881;28;97051;-80
2023/08/30 07:20:36;;;;;;;0.87;0.70;;;;;;;23.14;57.48;100380.16;10379344;28;97344;-80
2023/08/30 07:25:40;;;;;;;0.77;0.60;;;;;;;23.83;56.25;100383.66;10378304;28;97134;-80
2023/08/30 07:30:43;;;;;;;0.73;0.53;;;;;;;23.60;55.76;100380.41;10379007;28;96799;-80
2023/08/30 07:35:48;;;;;;;0.93;0.50;;;;;;;24.23;54.19;100375.44;10378960;28;97514;-80
2023/08/30 07:40:51;;;;;;;0.73;0.45;;;;;;;24.42;53.12;100381.66;10379179;28;97580;-79
2023/08/30 07:45:54;;;;;;;1.10;0.90;;;;;;;24.49;52.41;100387.28;10378119;28;96647;-79
2023/08/30 07:50:59;;;;;;;0.93;0.77;;;;;;;25.07;51.65;100391.50;10377949;28;96696;-80
2023/08/30 07:56:02;;;;;;;0.50;0.50;;;;;;;25.44;50.64;100386.91;10378370;28;96552;-80
2023/08/30 08:01:06;;;;;;;1.35;0.77;;;;;;;25.58;50.01;100382.81;10378870;28;96947;-79
2023/08/30 08:06:12;;;;;;;1.00;0.70;;;;;;;26.10;49.10;100390.09;10378065;28;97641;-80
2023/08/30 08:11:15;;;;;;;1.17;0.60;;;;;;;26.74;47.38;100392.44;10378198;28;96842;-79
2023/08/30 08:16:19;;;;;;;1.67;0.50;;;;;;;26.76;47.27;100388.56;10376178;28;96849;-79
2023/08/30 08:21:24;;;;;;;2.53;0.73;;;;;;;27.08;46.65;100401.41;10377918;28;96717;-80
2023/08/30 08:26:27;;;;;;;1.13;0.50;;;;;;;26.86;46.62;100393.84;10377136;28;96754;-80
2023/08/30 08:31:31;;;;;;;0.82;0.60;;;;;;;27.25;44.68;100391.53;10406080;28;97660;-80
2023/08/30 08:36:35;;;;;;;;;;;;;;;28.04;42.71;100392.72;10418909;28;97040;-80
2023/08/30 08:41:42;;;;;;;1.02;0.55;;;;;;;29.48;41.29;100396.13;10418342;28;96736;-80
2023/08/30 08:46:47;;;;;;;1.30;0.30;;;;;;;29.59;40.94;100388.47;10403673;28;96874;-80
2023/08/30 08:51:52;;;;;;;1.20;0.70;;;;;;;29.93;40.56;100394.34;10376857;28;96709;-80
2023/08/30 08:56:56;;;;;;;1.17;0.70;;;;;;;29.90;40.21;100389.25;10376744;28;96904;-80
2023/08/30 09:02:00;;;;;;;1.00;0.70;;;;;;;30.50;39.34;100397.44;10376393;28;96941;-80
2023/08/30 09:07:05;;;;;;;0.57;0.40;;;;;;;31.32;37.49;100391.78;10416576;28;96711;-81
2023/08/30 09:12:10;;;;;;;0.47;0.40;;;;;;;31.31;37.35;100397.41;10417808;28;96717;-80
2023/08/30 09:17:14;;;;;;;0.70;0.43;;;;;;;31.90;37.10;100396.25;10407885;28;97855;-80
2023/08/30 09:22:18;;;;;;;0.65;0.50;;;;;;;32.70;35.66;100395.91;10376435;28;96992;-80
2023/08/30 09:27:33;;;;;;;0.82;0.40;;;;;;;32.14;35.38;100403.16;10375307;28;97196;-80
2023/08/30 09:32:41;;;;;;;1.13;0.65;;;;;;;32.19;35.59;100408.88;10375472;28;97799;-80
2023/08/30 09:37:47;;;;;;;1.15;0.50;;;;;;;32.50;34.45;100403.09;10375203;28;97958;-80
2023/08/30 09:42:50;;;;;;;0.80;0.32;;;;;;;32.48;33.61;100405.19;10376593;28;96839;-81
2023/08/30 09:48:13;;;;;;;1.00;0.40;;;;;;;31.88;34.38;100402.91;10374533;28;96747;-80
2023/08/30 09:53:21;;;;;;;0.98;0.30;;;;;;;32.08;34.08;100395.81;10375684;28;96828;-80
2023/08/30 09:58:27;;;;;;;1.00;0.52;;;;;;;33.23;32.36;100397.91;10373207;28;96734;-80
2023/08/30 10:03:32;;;;;;;0.52;0.30;;;;;;;33.29;31.99;100397.97;10380544;28;96704;-80
2023/08/30 10:08:41;;;;;;;0.90;0.40;;;;;;;33.54;31.57;100392.00;10381379;28;97220;-80
2023/08/30 10:13:45;;;;;;;0.70;0.50;;;;;;;33.84;30.79;100396.06;10382864;28;96836;-80
2023/08/30 10:18:53;;;;;;;0.45;0.40;;;;;;;34.32;29.39;100390.28;10380437;28;96799;-80
2023/08/30 10:24:13;;;;;;;1.23;0.50;;;;;;;33.89;29.79;100383.47;10381327;28;97050;-81
2023/08/30 10:29:37;;;;;;;2.47;0.50;;;;;;;32.53;30.91;100379.03;10381390;28;96922;-80
2023/08/30 10:34:40;;;;;;;0.63;0.45;;;;;;;32.99;29.64;100373.88;10381764;28;96826;-81
2023/08/30 10:39:49;;;;;;;0.60;0.50;;;;;;;32.22;29.69;100371.19;10380623;28;96876;-81
2023/08/30 10:44:57;;;;;;;0.88;0.50;;;;;;;33.41;28.13;100355.44;10380836;28;97550;-80
2023/08/30 10:50:16;;;;;;;0.57;0.40;;;;;;;34.26;27.22;100358.34;10378757;28;96677;-80
2023/08/30 10:55:23;;;;;;;0.50;0.30;;;;;;;33.57;26.99;100350.66;10379741;28;96860;-80
2023/08/30 11:00:30;;;;;;;0.80;0.55;;;;;;;34.36;26.54;100352.44;10380218;28;96987;-81
2023/08/30 11:05:33;;;;;;;0.85;0.60;;;;;;;34.24;27.09;100329.53;10379981;28;97484;-81
2023/08/30 11:10:39;;;;;;;0.50;0.40;;;;;;;34.49;26.15;100327.88;10379130;28;96562;-81
2023/08/30 11:15:43;;;;;;;1.20;0.57;;;;;;;35.46;24.68;100328.63;10379342;28;96852;-81
2023/08/30 11:20:46;;;;;;;0.73;0.50;;;;;;;33.38;26.24;100325.78;10401603;28;97397;-81
2023/08/30 11:25:52;;;;;;;0.40;0.40;;;;;;;33.71;25.14;100325.88;10421684;28;96775;-79
2023/08/30 11:30:56;;;;;;;1.02;0.60;;;;;;;33.23;26.54;100303.28;10420677;28;96897;-80
2023/08/30 11:36:01;;;;;;;0.60;0.47;;;;;;;34.41;24.98;100315.22;10419710;28;97209;-80
2023/08/30 11:41:06;;;;;;;0.60;0.40;;;;;;;34.14;24.73;100307.25;10419516;28;96795;-80
2023/08/30 11:46:09;;;;;;;0.68;0.50;;;;;;;34.02;24.58;100298.03;10419845;28;96718;-80
2023/08/30 11:51:13;;;;;;;1.33;0.77;;;;;;;34.53;24.38;100291.69;10383755;28;97363;-81
2023/08/30 11:56:19;;;;;;;0.35;0.35;;;;;;;34.78;24.41;100290.97;10378875;28;96965;-80
2023/08/30 12:01:22;;;;;;;0.38;0.35;;;;;;;34.27;24.72;100271.72;10378110;28;97067;-81
2023/08/30 12:06:26;;;;;;;1.05;0.63;;;;;;;34.42;24.82;100266.88;10377982;28;97467;-81
2023/08/30 12:11:33;;;;;;;0.68;0.38;;;;;;;34.37;24.27;100263.91;10378164;28;97287;-80
2023/08/30 12:16:36;;;;;;;1.00;0.60;;;;;;;33.76;24.98;100257.03;10377798;28;96558;-79
2023/08/30 12:21:43;;;;;;;0.60;0.45;;;;;;;33.56;25.21;100247.97;10376717;28;96794;-79
2023/08/30 12:26:47;;;;;;;0.50;0.43;;;;;;;33.46;24.76;100248.38;10381444;28;97423;-80
2023/08/30 12:31:51;;;;;;;0.90;0.73;;;;;;;33.35;25.01;100247.06;10417832;28;97507;-81
2023/08/30 12:36:55;;;;;;;0.95;0.65;;;;;;;32.86;26.05;100235.56;10418318;28;97602;-80
2023/08/30 12:41:59;;;;;;;0.95;0.60;;;;;;;33.11;26.09;100219.53;10418532;28;96794;-81
2023/08/30 12:47:03;;;;;;;1.48;0.80;;;;;;;33.13;25.14;100210.09;10417262;28;96894;-82
2023/08/30 12:52:08;;;;;;;1.30;0.70;;;;;;;32.80;25.73;100208.28;10389909;28;96993;-81
2023/08/30 12:57:12;;;;;;;1.23;0.82;;;;;;;32.42;25.13;100202.47;10376510;28;97859;-82
2023/08/30 13:02:16;;;;;;;1.33;0.80;;;;;;;32.81;25.25;100205.34;10376938;28;97593;-81
2023/08/30 13:07:19;;;;;;;0.95;0.70;;;;;;;32.19;25.72;100207.31;10376851;28;97749;-81
2023/08/30 13:12:24;;;;;;;0.98;0.80;;;;;;;31.93;25.30;100208.00;10376202;28;96690;-81
2023/08/30 13:17:27;;;;;;;0.73;0.63;;;;;;;31.52;25.97;100200.72;10379628;28;96727;-79
2023/08/30 13:22:30;;;;;;;1.17;0.80;;;;;;;31.58;26.53;100192.63;10378711;28;96745;-81
2023/08/30 13:27:36;;;;;;;1.80;1.13;;;;;;;31.75;26.57;100196.75;10375844;28;97106;-82
2023/08/30 13:32:39;;;;;;;1.08;0.80;;;;;;;31.56;26.94;100194.72;10375387;28;96694;-81
2023/08/30 13:37:43;;;;;;;1.85;0.68;;;;;;;31.20;28.49;100196.63;10382392;28;96844;-82
2023/08/30 13:42:48;;;;;;;1.33;1.00;;;;;;;31.29;27.87;100184.63;10382765;28;97584;-81
2023/08/30 13:47:53;;;;;;;1.20;0.80;;;;;;;31.83;27.29;100174.84;10382149;28;97781;-79
2023/08/30 13:52:56;;;;;;;1.60;0.82;;;;;;;31.72;26.73;100169.09;10382770;28;96773;-82
2023/08/30 13:58:01;;;;;;;1.63;1.00;;;;;;;31.67;26.41;100160.69;10382663;28;97097;-80
2023/08/30 14:03:05;;;;;;;1.17;0.80;;;;;;;31.75;25.74;100161.38;10381928;28;96732;-81
2023/08/30 14:08:08;;;;;;;2.05;1.13;;;;;;;31.66;25.87;100154.41;10382260;28;96731;-81
2023/08/30 14:13:13;;;;;;;1.85;1.08;;;;;;;31.79;25.55;100148.22;10380418;28;97602;-81
2023/08/30 14:18:18;;;;;;;2.70;1.50;;;;;;;32.01;25.29;100147.13;10380925;28;99276;-81
2023/08/30 14:23:22;;;;;;;1.50;0.70;;;;;;;32.26;25.33;100140.97;10380988;28;96717;-81
2023/08/30 14:28:29;;;;;;;3.72;1.95;;;;;;;32.42;25.78;100129.75;10381530;28;96669;-80
2023/08/30 14:33:33;;;;;;;1.60;1.15;;;;;;;32.01;25.43;100126.19;10380906;28;97338;-82
2023/08/30 14:38:38;;;;;;;2.60;1.20;;;;;;;31.96;24.86;100122.38;10380781;28;96800;-81
2023/08/30 14:43:45;;;;;;;2.38;1.20;;;;;;;31.57;25.41;100133.81;10381681;28;96868;-81
2023/08/30 14:48:49;;;;;;;1.92;1.23;;;;;;;31.73;25.25;100121.78;10379749;28;96653;-81
2023/08/30 14:53:56;;;;;;;3.22;1.40;;;;;;;31.88;24.91;100119.81;10380714;28;97826;-81
2023/08/30 14:59:03;;;;;;;1.75;1.00;;;;;;;31.91;23.38;100117.53;10380084;28;96917;-82
2023/08/30 15:04:07;;;;;;;1.63;1.13;;;;;;;31.86;23.93;100116.47;10337504;28;96773;-81
2023/08/30 15:09:11;;;;;;;1.25;1.00;;;;;;;31.51;24.52;100104.69;10338381;28;96646;-81
2023/08/30 15:14:16;;;;;;;1.63;1.20;;;;;;;32.24;24.03;100109.50;10338765;28;97779;-81
2023/08/30 15:19:19;;;;;;;1.58;1.23;;;;;;;31.69;23.72;100104.16;10365413;28;96816;-82
2023/08/30 15:24:22;;;;;;;;;;;;;;;31.70;23.58;100098.50;10380122;28;96670;-81
2023/08/30 15:29:26;;;;;;;1.43;0.90;;;;;;;31.72;24.77;100098.34;10379386;28;96867;-81
2023/08/30 15:34:30;;;;;;;1.38;0.93;;;;;;;31.75;25.01;100100.66;10390889;28;97712;-80
2023/08/30 15:39:33;;;;;;;2.17;1.08;;;;;;;31.95;24.36;100099.75;10420953;28;96690;-81
2023/08/30 15:44:39;;;;;;;1.35;0.82;;;;;;;31.71;24.58;100097.50;10420088;28;96595;-79
2023/08/30 15:49:42;;;;;;;0.88;0.63;;;;;;;31.95;24.57;100107.06;10419745;28;96999;-79
2023/08/30 15:54:47;;;;;;;;;;;;;;;31.67;25.66;100093.47;10379785;28;96743;-81
2023/08/30 15:59:54;;;;;;;1.48;0.90;;;;;;;31.23;24.74;100106.53;10378372;28;97001;-81
2023/08/30 16:04:58;;;;;;;1.08;0.70;;;;;;;31.32;25.07;100098.03;10378295;28;97018;-80
2023/08/30 16:10:03;;;;;;;1.25;0.93;;;;;;;31.29;25.19;100097.59;10378424;28;96709;-80
2023/08/30 16:15:11;;;;;;;1.40;1.10;;;;;;;31.09;25.51;100097.41;10378697;28;96606;-78
2023/08/30 16:20:15;;;;;;;1.58;1.08;;;;;;;30.69;25.77;100086.34;10377367;28;97369;-79
2023/08/30 16:25:20;;;;;;;1.85;1.05;;;;;;;30.65;25.80;100080.41;10388002;28;96735;-81
2023/08/30 16:30:29;;;;;;;1.80;1.00;;;;;;;30.62;25.63;100082.69;10419297;28;96766;-80
2023/08/30 16:35:37;;;;;;;2.10;1.08;;;;;;;30.67;25.96;100082.94;10418617;28;96961;-80
2023/08/30 16:40:41;;;;;;;1.30;0.90;;;;;;;30.53;26.70;100079.25;10418427;28;97175;-80
2023/08/30 16:45:47;;;;;;;2.10;1.15;;;;;;;30.61;27.10;100073.69;10416367;28;96967;-80
2023/08/30 16:50:51;;;;;;;1.35;0.98;;;;;;;30.55;27.23;100079.91;10347373;22;97095;-79
2023/08/30 16:55:54;;;;;;;1.98;0.75;;;;;;;30.39;27.63;100079.28;10335333;28;97446;-79
2023/08/30 17:00:59;;;;;;;1.42;0.93;;;;;;;30.10;28.23;100093.78;10359552;28;96804;-80
2023/08/30 17:06:03;;;;;;;2.35;1.30;;;;;;;30.07;29.00;100084.09;10361937;28;96810;-80
2023/08/30 17:11:08;;;;;;;1.27;0.80;;;;;;;30.01;29.60;100089.44;10338657;28;96676;-80
2023/08/30 17:16:13;;;;;;;1.67;0.93;;;;;;;29.73;30.54;100081.13;10342331;28;96934;-79
2023/08/30 17:21:17;;;;;;;2.28;0.85;;;;;;;29.55;31.54;100087.97;10342735;28;96743;-80
2023/08/30 17:26:21;;;;;;;2.08;1.10;;;;;;;29.52;33.06;100093.75;10343332;28;97828;-81
2023/08/30 17:31:26;;;;;;;1.75;1.10;;;;;;;29.40;34.49;100093.31;10341545;28;97143;-81
2023/08/30 17:36:30;;;;;;;2.17;1.10;;;;;;;29.10;36.22;100103.25;10376911;28;96743;-80
2023/08/30 17:41:38;;;;;;;2.90;0.98;;;;;;;29.06;36.25;100098.38;10371351;28;96713;-79
2023/08/30 17:46:43;;;;;;;2.10;1.20;;;;;;;28.95;37.26;100104.22;10340654;28;96635;-79
2023/08/30 17:51:47;;;;;;;1.80;1.15;;;;;;;28.75;37.62;100111.13;10341751;28;97198;-80
2023/08/30 17:56:51;;;;;;;1.40;0.90;;;;;;;28.62;38.12;100114.41;10340465;28;96904;-79
2023/08/30 18:01:56;;;;;;;2.45;1.13;;;;;;;28.47;38.99;100120.78;10339866;28;97380;-80
2023/08/30 18:07:02;;;;;;;2.03;1.17;;;;;;;28.39;39.44;100126.25;10341168;28;97547;-79
2023/08/30 18:12:07;;;;;;;1.50;1.15;;;;;;;28.30;39.70;100130.00;10340834;28;96891;-81
2023/08/30 18:17:12;;;;;;;3.58;1.20;;;;;;;28.04;40.60;100144.66;10339714;28;97011;-80
2023/08/30 18:22:15;;;;;;;4.15;1.27;;;;;;;27.85;41.19;100144.19;10338664;28;97220;-81
2023/08/30 18:27:19;;;;;;;2.03;1.50;;;;;;;27.77;41.19;100152.34;10373744;28;96619;-79
2023/08/30 18:32:23;;;;;;;;;;;;;;;27.62;42.81;100157.56;10381790;28;96924;-81
2023/08/30 18:37:26;;;;;;;;;;;;;;;27.43;43.08;100152.50;10381332;28;96868;-79
2023/08/30 18:42:30;;;;;;;2.72;1.30;;;;;;;27.39;43.00;100166.56;10380301;28;96640;-79
2023/08/30 18:47:34;;;;;;;;;;;;;;;27.11;44.32;100168.75;10381062;28;96942;-80
2023/08/30 18:52:37;;;;;;;2.15;1.17;;;;;;;27.16;43.28;100174.50;10380862;28;96748;-80
2023/08/30 18:57:41;;;;;;;2.97;1.38;;;;;;;26.96;43.78;100183.88;10379180;28;96758;-80
2023/08/30 19:02:46;;;;;;;2.05;1.27;;;;;;;26.92;44.28;100188.75;10380581;28;96747;-79
2023/08/30 19:07:49;;;;;;;4.35;1.10;;;;;;;26.75;44.61;100187.03;10380089;28;96595;-80
2023/08/30 19:12:52;;;;;;;2.33;1.40;;;;;;;26.69;45.11;100201.22;10379576;28;97609;-80
2023/08/30 19:17:57;;;;;;;2.50;1.13;;;;;;;26.55;45.67;100192.91;10357834;28;96980;-81
2023/08/30 19:23:00;;;;;;;3.08;1.58;;;;;;;26.57;45.13;100202.53;10337576;28;96786;-79
2023/08/30 19:28:04;;;;;;;3.03;1.43;;;;;;;26.39;45.90;100212.56;10337825;28;97103;-79
2023/08/30 19:33:09;;;;;;;;;;;;;;;26.27;47.09;100211.13;10338455;28;97663;-78
2023/08/30 19:38:13;;;;;;;2.90;1.65;;;;;;;26.21;46.28;100219.88;10337619;28;97605;-79
2023/08/30 19:43:16;;;;;;;2.03;1.50;;;;;;;26.25;45.78;100226.63;10337160;28;96756;-79
2023/08/30 19:48:21;;;;;;;2.90;1.27;;;;;;;26.18;46.37;100236.38;10337147;28;97484;-79
2023/08/30 19:53:25;;;;;;;3.65;1.77;;;;;;;26.10;46.25;100236.34;10337927;28;97008;-79
2023/08/30 19:58:28;;;;;;;1.95;1.45;;;;;;;26.10;46.71;100244.44;10336743;28;97495;-79
2023/08/30 20:03:32;;;;;;;2.90;1.60;;;;;;;26.03;46.55;100243.38;10336508;28;96783;-79
2023/08/30 20:08:36;;;;;;;2.83;1.52;;;;;;;25.84;47.51;100255.22;10335706;28;96778;-79
2023/08/30 20:13:39;;;;;;;3.37;1.87;;;;;;;25.73;47.78;100255.47;10336524;28;96690;-79
2023/08/30 20:18:44;;;;;;;2.38;1.50;;;;;;;25.80;47.87;100252.97;10336342;28;96933;-79
2023/08/30 20:23:47;;;;;;;2.25;1.48;;;;;;;25.65;48.14;100258.06;10336742;28;97439;-79
2023/08/30 20:28:50;;;;;;;5.50;1.73;;;;;;;25.51;48.50;100265.84;10336115;28;97173;-79
2023/08/30 20:33:55;;;;;;;3.63;1.93;;;;;;;25.38;48.65;100262.72;10335728;28;96865;-79
2023/08/30 20:38:58;;;;;;;6.05;1.70;;;;;;;25.19;48.64;100266.38;10335524;28;96770;-79
2023/08/30 20:44:01;;;;;;;1.93;1.30;;;;;;;25.17;48.85;100271.09;10376303;28;97094;-79
2023/08/30 20:49:06;;;;;;;2.97;1.80;;;;;;;25.10;49.06;100288.88;10376209;28;96959;-79
2023/08/30 20:54:10;;;;;;;2.45;1.70;;;;;;;24.91;49.76;100294.34;10376730;28;96754;-79
2023/08/30 20:59:13;;;;;;;2.43;1.33;;;;;;;24.75;49.95;100297.69;10374497;28;97974;-79
2023/08/30 21:04:18;;;;;;;3.23;1.53;;;;;;;24.82;49.89;100303.31;10376659;28;96908;-79
2023/08/30 21:09:21;;;;;;;3.38;1.75;;;;;;;24.67;50.42;100313.72;10375754;28;96682;-79
2023/08/30 21:14:24;;;;;;;1.97;1.17;;;;;;;24.51;50.88;100313.53;10375482;28;96960;-78
2023/08/30 21:19:29;;;;;;;2.33;1.33;;;;;;;24.58;50.57;100319.97;10352906;28;97285;-79
2023/08/30 21:24:32;;;;;;;1.85;1.48;;;;;;;24.55;50.85;100325.66;10334673;28;97157;-79
2023/08/30 21:29:36;;;;;;;2.20;1.60;;;;;;;24.38;51.02;100323.75;10334025;28;96791;-79
2023/08/30 21:34:41;;;;;;;3.33;1.73;;;;;;;24.38;51.21;100326.44;10372679;28;97324;-79
2023/08/30 21:39:48;;;;;;;4.10;1.80;;;;;;;24.11;51.93;100337.09;10375213;28;96748;-79
2023/08/30 21:44:52;;;;;;;3.55;1.80;;;;;;;24.12;51.87;100343.31;10375537;28;96889;-79
2023/08/30 21:49:57;;;;;;;2.27;1.50;;;;;;;24.25;51.50;100342.03;10372543;28;97151;-79
2023/08/30 21:55:01;;;;;;;3.13;1.52;;;;;;;24.28;51.60;100346.28;10375481;28;96655;-79
2023/08/30 22:00:08;;;;;;;3.20;1.50;;;;;;;24.17;51.71;100349.13;10382013;28;96773;-79
2023/08/30 22:05:14;;;;;;;2.38;1.50;;;;;;;24.05;52.27;100355.66;10380948;28;96776;-79
2023/08/30 22:10:18;;;;;;;4.90;1.80;;;;;;;23.86;52.86;100358.38;10381789;28;97261;-79
2023/08/30 22:15:21;;;;;;;3.05;1.80;;;;;;;23.89;52.75;100355.38;10381674;28;96869;-79
2023/08/30 22:20:26;;;;;;;3.90;1.53;;;;;;;23.69;53.17;100366.13;10348638;28;96868;-80
2023/08/30 22:25:29;;;;;;;3.20;1.48;;;;;;;23.57;53.58;100352.97;10340966;28;97005;-80
2023/08/30 22:30:33;;;;;;;1.93;1.43;;;;;;;23.70;53.43;100359.75;10339530;28;96654;-79
2023/08/30 22:35:37;;;;;;;3.47;1.97;;;;;;;23.81;53.17;100355.22;10339751;28;96864;-80
2023/08/30 22:40:41;;;;;;;3.88;1.60;;;;;;;23.77;53.35;100351.16;10338751;28;97158;-80
2023/08/30 22:45:44;;;;;;;3.03;1.87;;;;;;;23.67;53.79;100351.13;10339270;28;96818;-80
2023/08/30 22:50:49;;;;;;;4.50;1.97;;;;;;;23.65;53.81;100347.72;10338921;28;96813;-80
2023/08/30 22:55:54;;;;;;;3.15;1.77;;;;;;;23.25;54.90;100352.34;10339143;28;96683;-80
2023/08/30 23:01:01;;;;;;;3.28;1.83;;;;;;;22.63;56.38;100343.63;10338732;28;96735;-79
2023/08/30 23:06:06;;;;;;;2.67;1.65;;;;;;;22.91;55.40;100342.91;10338643;28;96932;-80
2023/08/30 23:11:09;;;;;;;3.70;1.52;;;;;;;23.09;54.81;100330.53;10337686;28;97085;-80
2023/08/30 23:16:13;;;;;;;2.20;1.40;;;;;;;23.13;54.90;100334.66;10339066;28;96895;-79
2023/08/30 23:21:19;;;;;;;3.17;1.48;;;;;;;23.09;54.82;100339.44;10338282;28;96776;-79
2023/08/30 23:26:22;;;;;;;2.70;1.75;;;;;;;22.74;55.76;100347.06;10338023;28;96607;-79